sensor_id;sensor_type;location;lat;lon;timestamp;pressure;altitude;pressure_sealevel;temperature;humidity
29239;BME280;16267;48.194;11.546;2022-09-09T04:03:59;95717.84;;;17.12;83.92
29239;BME280;16267;48.194;11.546;2022-09-09T04:06:25;95714.38;;;17.12;84.18
29239;BME280;16267;48.194;11.546;2022-09-09T04:08:51;95724.06;;;17.13;84.31
29239;BME280;16267;48.194;11.546;2022-09-09T04:11:18;95723.28;;;17.12;84.41
29239;BME280;16267;48.194;11.546;2022-09-09T04:16:12;95712.44;;;17.12;84.35
29239;BME280;16267;48.194;11.546;2022-09-09T04:18:41;95717.09;;;17.12;84.33
29239;BME280;16267;48.194;11.546;2022-09-09T04:21:09;95711.69;;;17.12;84.16
29239;BME280;16267;48.194;11.546;2022-09-09T04:23:36;95709.72;;;17.12;84.40
29239;BME280;16267;48.194;11.546;2022-09-09T04:26:02;95707.78;;;17.13;84.44
29239;BME280;16267;48.194;11.546;2022-09-09T04:28:31;95708.53;;;17.13;84.56
29239;BME280;16267;48.194;11.546;2022-09-09T04:31:18;95699.66;;;17.13;84.30
29239;BME280;16267;48.194;11.546;2022-09-09T04:33:45;95699.66;;;17.13;84.00
29239;BME280;16267;48.194;11.546;2022-09-09T04:36:12;95698.44;;;17.14;84.02
29239;BME280;16267;48.194;11.546;2022-09-09T04:38:38;95697.22;;;17.15;83.69
29239;BME280;16267;48.194;11.546;2022-09-09T04:41:05;95703.41;;;17.15;83.82
29239;BME280;16267;48.194;11.546;2022-09-09T04:43:31;95697.22;;;17.15;84.07
29239;BME280;16267;48.194;11.546;2022-09-09T04:45:57;95694.22;;;17.13;84.26
29239;BME280;16267;48.194;11.546;2022-09-09T04:48:25;95692.69;;;17.12;84.09
29239;BME280;16267;48.194;11.546;2022-09-09T04:51:10;95694.66;;;17.11;84.16
29239;BME280;16267;48.194;11.546;2022-09-09T04:53:36;95694.66;;;17.11;84.28
29239;BME280;16267;48.194;11.546;2022-09-09T04:56:07;95696.31;;;17.09;83.84
29239;BME280;16267;48.194;11.546;2022-09-09T04:58:33;95699.03;;;17.09;83.62
29239;BME280;16267;48.194;11.546;2022-09-09T05:01:15;95695.56;;;17.08;83.73
29239;BME280;16267;48.194;11.546;2022-09-09T05:03:42;95696.31;;;17.09;83.92
29239;BME280;16267;48.194;11.546;2022-09-09T05:06:14;95693.59;;;17.09;83.87
29239;BME280;16267;48.194;11.546;2022-09-09T05:08:42;95692.84;;;17.08;83.88
29239;BME280;16267;48.194;11.546;2022-09-09T05:11:22;95699.50;;;17.07;83.94
29239;BME280;16267;48.194;11.546;2022-09-09T05:13:50;95703.69;;;17.08;83.77
29239;BME280;16267;48.194;11.546;2022-09-09T05:16:17;95698.72;;;17.07;83.70
29239;BME280;16267;48.194;11.546;2022-09-09T05:18:44;95702.94;;;17.08;83.74
29239;BME280;16267;48.194;11.546;2022-09-09T05:21:13;95702.19;;;17.07;83.91
29239;BME280;16267;48.194;11.546;2022-09-09T05:23:39;95708.38;;;17.08;83.71
29239;BME280;16267;48.194;11.546;2022-09-09T05:26:07;95713.47;;;17.06;83.81
29239;BME280;16267;48.194;11.546;2022-09-09T05:28:35;95716.19;;;17.06;83.81
29239;BME280;16267;48.194;11.546;2022-09-09T05:31:05;95724.75;;;17.04;83.96
29239;BME280;16267;48.194;11.546;2022-09-09T05:33:34;95730.97;;;17.05;84.09
29239;BME280;16267;48.194;11.546;2022-09-09T05:36:16;95735.59;;;17.04;84.14
29239;BME280;16267;48.194;11.546;2022-09-09T05:38:43;95732.91;;;17.04;84.13
29239;BME280;16267;48.194;11.546;2022-09-09T05:41:10;95730.97;;;17.05;84.10
29239;BME280;16267;48.194;11.546;2022-09-09T05:43:37;95720.88;;;17.05;84.31
29239;BME280;16267;48.194;11.546;2022-09-09T05:46:09;95720.41;;;17.07;84.64
29239;BME280;16267;48.194;11.546;2022-09-09T05:48:39;95730.50;;;17.06;84.60
29239;BME280;16267;48.194;11.546;2022-09-09T05:51:08;95729.31;;;17.07;84.87
29239;BME280;16267;48.194;11.546;2022-09-09T05:53:34;95732.03;;;17.07;84.74
29239;BME280;16267;48.194;11.546;2022-09-09T05:56:06;95723.88;;;17.07;85.52
29239;BME280;16267;48.194;11.546;2022-09-09T05:58:34;95722.69;;;17.08;85.72
29239;BME280;16267;48.194;11.546;2022-09-09T06:01:06;95718.75;;;17.09;85.81
29239;BME280;16267;48.194;11.546;2022-09-09T06:03:37;95720.28;;;17.10;85.96
29239;BME280;16267;48.194;11.546;2022-09-09T06:06:09;95730.66;;;17.12;86.64
29239;BME280;16267;48.194;11.546;2022-09-09T06:08:39;95731.41;;;17.12;86.23
29239;BME280;16267;48.194;11.546;2022-09-09T06:11:16;95737.91;;;17.15;86.33
29239;BME280;16267;48.194;11.546;2022-09-09T06:13:43;95740.16;;;17.16;86.53
29239;BME280;16267;48.194;11.546;2022-09-09T06:16:17;95738.94;;;17.17;86.51
29239;BME280;16267;48.194;11.546;2022-09-09T06:18:43;95733.84;;;17.20;86.27
29239;BME280;16267;48.194;11.546;2022-09-09T06:21:16;95723.00;;;17.20;85.83
29239;BME280;16267;48.194;11.546;2022-09-09T06:23:42;95736.13;;;17.21;85.83
29239;BME280;16267;48.194;11.546;2022-09-09T06:26:13;95728.72;;;17.22;85.62
29239;BME280;16267;48.194;11.546;2022-09-09T06:28:39;95719.38;;;17.23;85.51
29239;BME280;16267;48.194;11.546;2022-09-09T06:31:09;95725.88;;;17.25;85.62
29239;BME280;16267;48.194;11.546;2022-09-09T06:33:38;95731.28;;;17.25;85.93
29239;BME280;16267;48.194;11.546;2022-09-09T06:36:16;95728.13;;;17.27;86.10
29239;BME280;16267;48.194;11.546;2022-09-09T06:38:44;95737.78;;;17.28;86.12
29239;BME280;16267;48.194;11.546;2022-09-09T06:41:11;95720.75;;;17.27;86.44
29239;BME280;16267;48.194;11.546;2022-09-09T06:43:38;95722.25;;;17.28;86.34
29239;BME280;16267;48.194;11.546;2022-09-09T06:48:43;95732.94;;;17.32;86.71
29239;BME280;16267;48.194;11.546;2022-09-09T06:51:18;95737.94;;;17.33;86.83
29239;BME280;16267;48.194;11.546;2022-09-09T06:53:46;95739.44;;;17.34;87.05
29239;BME280;16267;48.194;11.546;2022-09-09T06:56:32;95737.03;;;17.36;87.06
29239;BME280;16267;48.194;11.546;2022-09-09T06:59:01;95741.25;;;17.37;86.42
29239;BME280;16267;48.194;11.546;2022-09-09T07:01:34;95749.69;;;17.39;85.67
29239;BME280;16267;48.194;11.546;2022-09-09T07:04:01;95748.50;;;17.41;85.70
29239;BME280;16267;48.194;11.546;2022-09-09T07:06:35;95749.09;;;17.45;85.79
29239;BME280;16267;48.194;11.546;2022-09-09T07:09:07;95772.63;;;17.48;85.64
29239;BME280;16267;48.194;11.546;2022-09-09T07:11:48;95785.28;;;17.51;85.77
29239;BME280;16267;48.194;11.546;2022-09-09T07:14:15;95801.56;;;17.51;85.31
29239;BME280;16267;48.194;11.546;2022-09-09T07:16:42;95821.00;;;17.49;85.32
29239;BME280;16267;48.194;11.546;2022-09-09T07:19:09;95815.28;;;17.47;86.73
29239;BME280;16267;48.194;11.546;2022-09-09T07:21:36;95799.16;;;17.44;88.28
29239;BME280;16267;48.194;11.546;2022-09-09T07:24:02;95794.16;;;17.42;88.83
29239;BME280;16267;48.194;11.546;2022-09-09T07:26:30;95805.00;;;17.42;88.48
29239;BME280;16267;48.194;11.546;2022-09-09T07:28:56;95805.00;;;17.42;89.84
29239;BME280;16267;48.194;11.546;2022-09-09T07:31:35;95807.72;;;17.42;88.82
29239;BME280;16267;48.194;11.546;2022-09-09T07:34:03;95807.28;;;17.44;89.17
29239;BME280;16267;48.194;11.546;2022-09-09T07:36:39;95806.06;;;17.45;88.52
29239;BME280;16267;48.194;11.546;2022-09-09T07:39:09;95810.59;;;17.48;88.63
29239;BME280;16267;48.194;11.546;2022-09-09T07:41:42;95808.94;;;17.50;88.01
29239;BME280;16267;48.194;11.546;2022-09-09T07:44:18;95809.25;;;17.52;88.55
29239;BME280;16267;48.194;11.546;2022-09-09T07:46:45;95821.47;;;17.57;88.54
29239;BME280;16267;48.194;11.546;2022-09-09T07:49:11;95817.09;;;17.59;90.02
29239;BME280;16267;48.194;11.546;2022-09-09T07:51:44;95822.09;;;17.61;89.40
29239;BME280;16267;48.194;11.546;2022-09-09T07:54:14;95826.28;;;17.62;88.75
29239;BME280;16267;48.194;11.546;2022-09-09T07:56:41;95828.09;;;17.65;89.04
29239;BME280;16267;48.194;11.546;2022-09-09T07:59:08;95819.53;;;17.67;88.50
29239;BME280;16267;48.194;11.546;2022-09-09T08:01:38;95823.63;;;17.71;87.90
29239;BME280;16267;48.194;11.546;2022-09-09T08:04:09;95824.66;;;17.74;87.83
29239;BME280;16267;48.194;11.546;2022-09-09T08:06:39;95819.09;;;17.77;87.59
29239;BME280;16267;48.194;11.546;2022-09-09T08:09:06;95817.91;;;17.78;87.26
29239;BME280;16267;48.194;11.546;2022-09-09T08:11:33;95827.72;;;17.85;87.80
29239;BME280;16267;48.194;11.546;2022-09-09T08:14:02;95837.97;;;17.90;87.99
29239;BME280;16267;48.194;11.546;2022-09-09T08:16:33;95842.06;;;17.95;88.79
29239;BME280;16267;48.194;11.546;2022-09-09T08:19:03;95837.25;;;17.99;90.92
29239;BME280;16267;48.194;11.546;2022-09-09T08:21:31;95850.34;;;18.00;91.65
29239;BME280;16267;48.194;11.546;2022-09-09T08:24:00;95845.53;;;18.04;90.34
29239;BME280;16267;48.194;11.546;2022-09-09T08:26:36;95849.75;;;18.05;89.42
29239;BME280;16267;48.194;11.546;2022-09-09T08:29:05;95863.63;;;18.08;89.19
29239;BME280;16267;48.194;11.546;2022-09-09T08:31:42;95856.25;;;18.08;88.27
29239;BME280;16267;48.194;11.546;2022-09-09T08:34:09;95858.53;;;18.10;89.00
29239;BME280;16267;48.194;11.546;2022-09-09T08:36:40;95863.16;;;18.09;88.88
29239;BME280;16267;48.194;11.546;2022-09-09T08:39:09;95856.56;;;18.10;89.34
29239;BME280;16267;48.194;11.546;2022-09-09T08:53:08;95861.97;;;18.19;92.28
29239;BME280;16267;48.194;11.546;2022-09-09T08:58:31;95853.81;;;18.19;91.79
29239;BME280;16267;48.194;11.546;2022-09-09T09:04:05;95846.72;;;18.22;92.60
29239;BME280;16267;48.194;11.546;2022-09-09T09:09:31;95850.94;;;18.23;91.84
29239;BME280;16267;48.194;11.546;2022-09-09T09:12:28;95848.53;;;18.25;91.60
29239;BME280;16267;48.194;11.546;2022-09-09T09:14:52;95845.38;;;18.26;90.90
29239;BME280;16267;48.194;11.546;2022-09-09T09:17:20;95847.47;;;18.32;90.72
29239;BME280;16267;48.194;11.546;2022-09-09T09:19:48;95845.38;;;18.36;90.86
29239;BME280;16267;48.194;11.546;2022-09-09T09:22:53;95846.41;;;18.38;91.75
29239;BME280;16267;48.194;11.546;2022-09-09T09:25:31;95845.22;;;18.39;91.71
29239;BME280;16267;48.194;11.546;2022-09-09T09:28:16;95850.50;;;18.43;92.42
29239;BME280;16267;48.194;11.546;2022-09-09T09:30:59;95842.78;;;18.50;92.47
29239;BME280;16267;48.194;11.546;2022-09-09T09:36:07;95853.66;;;18.60;91.90
29239;BME280;16267;48.194;11.546;2022-09-09T09:38:36;95847.28;;;18.63;91.87
29239;BME280;16267;48.194;11.546;2022-09-09T09:41:02;95851.81;;;18.66;92.43
29239;BME280;16267;48.194;11.546;2022-09-09T09:43:34;95853.44;;;18.72;93.32
29239;BME280;16267;48.194;11.546;2022-09-09T09:46:04;95858.00;;;18.76;93.05
29239;BME280;16267;48.194;11.546;2022-09-09T09:48:30;95855.91;;;18.80;92.78
29239;BME280;16267;48.194;11.546;2022-09-09T09:51:11;95853.00;;;18.83;92.26
29239;BME280;16267;48.194;11.546;2022-09-09T09:53:41;95856.03;;;18.85;90.38
29239;BME280;16267;48.194;11.546;2022-09-09T09:56:10;95844.69;;;18.87;89.88
29239;BME280;16267;48.194;11.546;2022-09-09T09:58:57;95847.69;;;18.89;89.25
29239;BME280;16267;48.194;11.546;2022-09-09T10:01:24;95847.69;;;18.89;89.67
29239;BME280;16267;48.194;11.546;2022-09-09T10:04:18;95852.38;;;18.88;89.26
29239;BME280;16267;48.194;11.546;2022-09-09T10:06:46;95854.81;;;18.86;88.25
29239;BME280;16267;48.194;11.546;2022-09-09T10:09:30;95856.78;;;18.86;88.51
29239;BME280;16267;48.194;11.546;2022-09-09T10:21:47;95851.03;;;18.84;87.20
29239;BME280;16267;48.194;11.546;2022-09-09T10:30:24;95861.13;;;18.92;86.43
29239;BME280;16267;48.194;11.546;2022-09-09T10:38:57;95850.25;;;19.02;85.74
29239;BME280;16267;48.194;11.546;2022-09-09T10:56:16;95851.44;;;19.43;84.49
29239;BME280;16267;48.194;11.546;2022-09-09T11:04:10;95847.84;;;19.61;83.50
29239;BME280;16267;48.194;11.546;2022-09-09T11:06:47;95850.53;;;19.70;83.32
29239;BME280;16267;48.194;11.546;2022-09-09T11:09:32;95840.78;;;19.78;83.48
29239;BME280;16267;48.194;11.546;2022-09-09T11:12:00;95840.00;;;19.87;82.60
29239;BME280;16267;48.194;11.546;2022-09-09T11:14:50;95835.72;;;19.95;81.80
29239;BME280;16267;48.194;11.546;2022-09-09T11:17:44;95839.56;;;20.03;81.31
29239;BME280;16267;48.194;11.546;2022-09-09T11:20:13;95829.53;;;20.10;81.08
29239;BME280;16267;48.194;11.546;2022-09-09T11:22:48;95839.31;;;20.16;81.13
29239;BME280;16267;48.194;11.546;2022-09-09T11:25:37;95836.22;;;20.23;78.22
29239;BME280;16267;48.194;11.546;2022-09-09T11:28:51;95836.59;;;20.31;77.22
29239;BME280;16267;48.194;11.546;2022-09-09T11:32:00;95833.97;;;20.37;75.50
29239;BME280;16267;48.194;11.546;2022-09-09T11:34:50;95830.34;;;20.40;75.17
29239;BME280;16267;48.194;11.546;2022-09-09T11:37:49;95829.41;;;20.43;74.44
29239;BME280;16267;48.194;11.546;2022-09-09T11:40:24;95827.41;;;20.43;74.25
29239;BME280;16267;48.194;11.546;2022-09-09T11:43:09;95831.63;;;20.44;73.79
29239;BME280;16267;48.194;11.546;2022-09-09T11:45:41;95829.50;;;20.48;73.10
29239;BME280;16267;48.194;11.546;2022-09-09T11:48:36;95823.09;;;20.52;73.21
29239;BME280;16267;48.194;11.546;2022-09-09T11:51:24;95825.38;;;20.53;72.97
29239;BME280;16267;48.194;11.546;2022-09-09T11:56:51;95828.97;;;20.59;71.04
29239;BME280;16267;48.194;11.546;2022-09-09T11:59:37;95839.88;;;20.59;70.88
29239;BME280;16267;48.194;11.546;2022-09-09T12:02:22;95835.63;;;20.58;71.78
29239;BME280;16267;48.194;11.546;2022-09-09T12:05:09;95835.16;;;20.60;72.03
29239;BME280;16267;48.194;11.546;2022-09-09T12:07:55;95835.91;;;20.60;72.70
29239;BME280;16267;48.194;11.546;2022-09-09T12:10:32;95838.66;;;20.60;71.69
29239;BME280;16267;48.194;11.546;2022-09-09T12:15:54;95837.06;;;20.68;71.89
29239;BME280;16267;48.194;11.546;2022-09-09T12:18:32;95835.34;;;20.71;71.41
29239;BME280;16267;48.194;11.546;2022-09-09T12:24:13;95832.06;;;20.67;70.67
29239;BME280;16267;48.194;11.546;2022-09-09T12:27:24;95827.09;;;20.65;71.73
29239;BME280;16267;48.194;11.546;2022-09-09T12:32:25;95826.03;;;20.63;71.94
29239;BME280;16267;48.194;11.546;2022-09-09T12:35:11;95825.09;;;20.66;72.35
29239;BME280;16267;48.194;11.546;2022-09-09T12:37:56;95821.44;;;20.69;72.08
29239;BME280;16267;48.194;11.546;2022-09-09T12:40:29;95810.06;;;20.70;71.58
29239;BME280;16267;48.194;11.546;2022-09-09T12:42:57;95814.56;;;20.74;71.48
29239;BME280;16267;48.194;11.546;2022-09-09T12:45:31;95811.66;;;20.77;71.50
29239;BME280;16267;48.194;11.546;2022-09-09T12:48:08;95804.50;;;20.80;70.96
29239;BME280;16267;48.194;11.546;2022-09-09T12:50:46;95800.38;;;20.84;71.52
29239;BME280;16267;48.194;11.546;2022-09-09T12:53:29;95803.66;;;20.88;71.27
29239;BME280;16267;48.194;11.546;2022-09-09T12:56:07;95802.69;;;20.91;71.86
29239;BME280;16267;48.194;11.546;2022-09-09T12:58:37;95794.34;;;20.95;72.68
29239;BME280;16267;48.194;11.546;2022-09-09T13:01:05;95795.81;;;20.96;71.60
29239;BME280;16267;48.194;11.546;2022-09-09T13:03:32;95781.69;;;20.98;71.24
29239;BME280;16267;48.194;11.546;2022-09-09T13:06:12;95786.41;;;20.97;70.69
29239;BME280;16267;48.194;11.546;2022-09-09T13:08:38;95785.19;;;20.98;71.39
29239;BME280;16267;48.194;11.546;2022-09-09T13:11:11;95780.50;;;20.99;71.32
29239;BME280;16267;48.194;11.546;2022-09-09T13:13:40;95781.25;;;20.99;71.52
29239;BME280;16267;48.194;11.546;2022-09-09T13:19:10;95773.72;;;20.94;69.24
29239;BME280;16267;48.194;11.546;2022-09-09T13:21:40;95768.25;;;20.94;69.96
29239;BME280;16267;48.194;11.546;2022-09-09T13:24:32;95772.50;;;20.95;70.24
29239;BME280;16267;48.194;11.546;2022-09-09T13:29:54;95765.63;;;21.00;70.46
29239;BME280;16267;48.194;11.546;2022-09-09T13:32:25;95759.97;;;21.03;71.08
29239;BME280;16267;48.194;11.546;2022-09-09T13:34:58;95744.16;;;21.07;71.51
29239;BME280;16267;48.194;11.546;2022-09-09T13:37:39;95748.38;;;21.08;69.58
29239;BME280;16267;48.194;11.546;2022-09-09T13:40:17;95746.88;;;21.07;68.83
29239;BME280;16267;48.194;11.546;2022-09-09T13:42:44;95754.84;;;21.11;70.32
29239;BME280;16267;48.194;11.546;2022-09-09T13:45:20;95746.22;;;21.12;70.17
29239;BME280;16267;48.194;11.546;2022-09-09T13:47:47;95749.22;;;21.14;69.94
29239;BME280;16267;48.194;11.546;2022-09-09T13:50:30;95747.25;;;21.15;68.53
29239;BME280;16267;48.194;11.546;2022-09-09T13:52:58;95747.25;;;21.15;69.14
29239;BME280;16267;48.194;11.546;2022-09-09T13:55:26;95746.97;;;21.13;68.87
29239;BME280;16267;48.194;11.546;2022-09-09T13:57:57;95743.47;;;21.12;68.77
29239;BME280;16267;48.194;11.546;2022-09-09T14:00:24;95740.94;;;21.09;68.22
29239;BME280;16267;48.194;11.546;2022-09-09T14:02:50;95740.84;;;21.03;67.80
29239;BME280;16267;48.194;11.546;2022-09-09T14:05:18;95744.28;;;20.98;67.17
29239;BME280;16267;48.194;11.546;2022-09-09T14:07:44;95736.03;;;20.92;67.20
29239;BME280;16267;48.194;11.546;2022-09-09T14:10:11;95745.91;;;20.90;67.07
29239;BME280;16267;48.194;11.546;2022-09-09T14:12:38;95747.31;;;20.85;66.81
29239;BME280;16267;48.194;11.546;2022-09-09T14:15:06;95743.09;;;20.84;68.02
29239;BME280;16267;48.194;11.546;2022-09-09T14:17:33;95742.06;;;20.82;67.79
29239;BME280;16267;48.194;11.546;2022-09-09T14:19:59;95753.63;;;20.77;67.26
29239;BME280;16267;48.194;11.546;2022-09-09T14:22:25;95756.81;;;20.75;68.25
29239;BME280;16267;48.194;11.546;2022-09-09T14:24:51;95758.25;;;20.70;68.22
29239;BME280;16267;48.194;11.546;2022-09-09T14:27:17;95761.44;;;20.69;69.09
29239;BME280;16267;48.194;11.546;2022-09-09T14:29:44;95762.47;;;20.71;69.53
29239;BME280;16267;48.194;11.546;2022-09-09T14:32:12;95762.47;;;20.71;69.35
29239;BME280;16267;48.194;11.546;2022-09-09T14:34:37;95767.94;;;20.71;69.55
29239;BME280;16267;48.194;11.546;2022-09-09T14:37:04;95759.47;;;20.69;69.34
29239;BME280;16267;48.194;11.546;2022-09-09T14:39:30;95762.19;;;20.69;69.72
29239;BME280;16267;48.194;11.546;2022-09-09T14:41:56;95759.66;;;20.66;68.10
29239;BME280;16267;48.194;11.546;2022-09-09T14:44:21;95770.28;;;20.64;68.58
29239;BME280;16267;48.194;11.546;2022-09-09T14:46:47;95771.97;;;20.61;68.28
29239;BME280;16267;48.194;11.546;2022-09-09T14:49:15;95775.94;;;20.60;69.43
29239;BME280;16267;48.194;11.546;2022-09-09T14:51:41;95781.84;;;20.59;69.71
29239;BME280;16267;48.194;11.546;2022-09-09T14:54:07;95778.56;;;20.55;69.42
29239;BME280;16267;48.194;11.546;2022-09-09T14:56:34;95781.75;;;20.53;69.10
29239;BME280;16267;48.194;11.546;2022-09-09T14:59:00;95781.91;;;20.49;69.08
29239;BME280;16267;48.194;11.546;2022-09-09T15:01:27;95782.88;;;20.46;69.43
29239;BME280;16267;48.194;11.546;2022-09-09T15:03:57;95783.31;;;20.45;68.85
29239;BME280;16267;48.194;11.546;2022-09-09T15:06:25;95780.78;;;20.41;69.17
29239;BME280;16267;48.194;11.546;2022-09-09T15:08:53;95777.03;;;20.39;69.08
29239;BME280;16267;48.194;11.546;2022-09-09T15:11:20;95778.25;;;20.38;69.25
29239;BME280;16267;48.194;11.546;2022-09-09T15:13:46;95774.00;;;20.37;69.60
29239;BME280;16267;48.194;11.546;2022-09-09T15:16:16;95769.34;;;20.37;70.18
29239;BME280;16267;48.194;11.546;2022-09-09T15:18:44;95773.75;;;20.35;69.02
29239;BME280;16267;48.194;11.546;2022-09-09T15:21:17;95766.31;;;20.35;68.99
29239;BME280;16267;48.194;11.546;2022-09-09T15:23:44;95764.34;;;20.36;69.54
29239;BME280;16267;48.194;11.546;2022-09-09T15:26:11;95761.63;;;20.36;69.69
29239;BME280;16267;48.194;11.546;2022-09-09T15:28:42;95756.16;;;20.36;69.41
29239;BME280;16267;48.194;11.546;2022-09-09T15:31:30;95751.00;;;20.38;69.45
29239;BME280;16267;48.194;11.546;2022-09-09T15:36:36;95745.34;;;20.41;68.43
29239;BME280;16267;48.194;11.546;2022-09-09T15:39:06;95741.69;;;20.44;68.38
29239;BME280;16267;48.194;11.546;2022-09-09T15:41:33;95743.22;;;20.45;68.77
29239;BME280;16267;48.194;11.546;2022-09-09T15:43:59;95744.69;;;20.46;68.64
29239;BME280;16267;48.194;11.546;2022-09-09T15:46:52;95744.25;;;20.48;68.13
29239;BME280;16267;48.194;11.546;2022-09-09T15:49:26;95738.59;;;20.52;68.85
29239;BME280;16267;48.194;11.546;2022-09-09T15:51:57;95734.63;;;20.53;68.84
29239;BME280;16267;48.194;11.546;2022-09-09T15:54:25;95733.47;;;20.54;68.33
29239;BME280;16267;48.194;11.546;2022-09-09T15:57:00;95726.03;;;20.54;68.49
29239;BME280;16267;48.194;11.546;2022-09-09T15:59:28;95731.63;;;20.50;66.75
29239;BME280;16267;48.194;11.546;2022-09-09T16:01:55;95732.56;;;20.47;65.51
29239;BME280;16267;48.194;11.546;2022-09-09T16:04:23;95739.72;;;20.45;66.00
29239;BME280;16267;48.194;11.546;2022-09-09T16:06:55;95731.72;;;20.41;65.69
29239;BME280;16267;48.194;11.546;2022-09-09T16:09:21;95734.66;;;20.38;66.10
29239;BME280;16267;48.194;11.546;2022-09-09T16:11:47;95737.56;;;20.34;66.29
29239;BME280;16267;48.194;11.546;2022-09-09T16:14:14;95732.28;;;20.31;66.22
29239;BME280;16267;48.194;11.546;2022-09-09T16:16:42;95731.00;;;20.26;65.91
29239;BME280;16267;48.194;11.546;2022-09-09T16:19:10;95729.47;;;20.25;66.19
29239;BME280;16267;48.194;11.546;2022-09-09T16:21:44;95727.25;;;20.23;66.37
29239;BME280;16267;48.194;11.546;2022-09-09T16:24:12;95724.22;;;20.21;66.44
29239;BME280;16267;48.194;11.546;2022-09-09T16:26:43;95721.97;;;20.20;66.03
29239;BME280;16267;48.194;11.546;2022-09-09T16:29:14;95723.66;;;20.17;65.50
29239;BME280;16267;48.194;11.546;2022-09-09T16:31:41;95717.44;;;20.17;65.70
29239;BME280;16267;48.194;11.546;2022-09-09T16:34:08;95715.94;;;20.16;65.52
29239;BME280;16267;48.194;11.546;2022-09-09T16:36:37;95718.38;;;20.14;64.75
29239;BME280;16267;48.194;11.546;2022-09-09T16:39:09;95707.97;;;20.12;65.14
29239;BME280;16267;48.194;11.546;2022-09-09T16:41:36;95710.41;;;20.10;64.84
29239;BME280;16267;48.194;11.546;2022-09-09T16:44:08;95702.44;;;20.07;63.72
29239;BME280;16267;48.194;11.546;2022-09-09T16:46:40;95704.13;;;20.04;63.27
29239;BME280;16267;48.194;11.546;2022-09-09T16:49:10;95705.81;;;20.01;62.97
29239;BME280;16267;48.194;11.546;2022-09-09T16:51:47;95707.94;;;19.97;63.64
29239;BME280;16267;48.194;11.546;2022-09-09T16:54:14;95714.63;;;19.96;64.34
29239;BME280;16267;48.194;11.546;2022-09-09T16:56:43;95716.31;;;19.94;65.24
29239;BME280;16267;48.194;11.546;2022-09-09T16:59:12;95718.47;;;19.90;64.71
29239;BME280;16267;48.194;11.546;2022-09-09T17:01:41;95720.63;;;19.86;63.78
29239;BME280;16267;48.194;11.546;2022-09-09T17:04:13;95721.56;;;19.82;63.68
29239;BME280;16267;48.194;11.546;2022-09-09T17:06:41;95723.69;;;19.78;64.37
29239;BME280;16267;48.194;11.546;2022-09-09T17:09:11;95721.66;;;19.73;64.37
29239;BME280;16267;48.194;11.546;2022-09-09T17:11:39;95726.81;;;19.71;64.96
29239;BME280;16267;48.194;11.546;2022-09-09T17:14:07;95723.50;;;19.67;65.53
29239;BME280;16267;48.194;11.546;2022-09-09T17:16:35;95723.97;;;19.66;65.67
29239;BME280;16267;48.194;11.546;2022-09-09T17:19:03;95720.63;;;19.61;65.74
29239;BME280;16267;48.194;11.546;2022-09-09T17:21:31;95720.81;;;19.58;65.69
29239;BME280;16267;48.194;11.546;2022-09-09T17:23:59;95731.91;;;19.54;65.83
29239;BME280;16267;48.194;11.546;2022-09-09T17:26:29;95730.84;;;19.52;65.78
29239;BME280;16267;48.194;11.546;2022-09-09T17:28:57;95731.78;;;19.49;66.26
29239;BME280;16267;48.194;11.546;2022-09-09T17:31:27;95730.44;;;19.44;66.50
29239;BME280;16267;48.194;11.546;2022-09-09T17:33:53;95725.19;;;19.41;65.98
29239;BME280;16267;48.194;11.546;2022-09-09T17:36:29;95731.56;;;19.37;66.86
29239;BME280;16267;48.194;11.546;2022-09-09T17:38:56;95734.00;;;19.35;67.18
29239;BME280;16267;48.194;11.546;2022-09-09T17:41:26;95734.91;;;19.32;67.53
29239;BME280;16267;48.194;11.546;2022-09-09T17:43:52;95735.84;;;19.29;67.75
29239;BME280;16267;48.194;11.546;2022-09-09T17:46:25;95747.19;;;19.28;68.23
29239;BME280;16267;48.194;11.546;2022-09-09T17:48:57;95744.16;;;19.26;68.65
29239;BME280;16267;48.194;11.546;2022-09-09T17:51:26;95754.78;;;19.24;69.11
29239;BME280;16267;48.194;11.546;2022-09-09T17:54:02;95748.28;;;19.21;69.23
29239;BME280;16267;48.194;11.546;2022-09-09T17:56:30;95747.25;;;19.19;69.41
29239;BME280;16267;48.194;11.546;2022-09-09T17:58:58;95745.44;;;19.15;69.39
29239;BME280;16267;48.194;11.546;2022-09-09T18:01:28;95753.31;;;19.13;69.68
29239;BME280;16267;48.194;11.546;2022-09-09T18:03:58;95753.50;;;19.10;69.67
29239;BME280;16267;48.194;11.546;2022-09-09T18:06:31;95760.59;;;19.07;70.13
29239;BME280;16267;48.194;11.546;2022-09-09T18:09:00;95760.31;;;19.05;70.38
29239;BME280;16267;48.194;11.546;2022-09-09T18:11:36;95754.31;;;19.01;70.08
29239;BME280;16267;48.194;11.546;2022-09-09T18:14:04;95760.19;;;19.00;70.08
29239;BME280;16267;48.194;11.546;2022-09-09T18:16:32;95757.66;;;18.96;70.42
29239;BME280;16267;48.194;11.546;2022-09-09T18:19:05;95755.84;;;18.93;70.40
29239;BME280;16267;48.194;11.546;2022-09-09T18:21:32;95756.28;;;18.91;70.90
29239;BME280;16267;48.194;11.546;2022-09-09T18:24:01;95757.53;;;18.90;71.09
29239;BME280;16267;48.194;11.546;2022-09-09T18:26:28;95764.16;;;18.89;71.51
29239;BME280;16267;48.194;11.546;2022-09-09T18:28:56;95768.53;;;18.87;71.42
29239;BME280;16267;48.194;11.546;2022-09-09T18:31:25;95771.75;;;18.85;71.63
29239;BME280;16267;48.194;11.546;2022-09-09T18:33:57;95776.13;;;18.83;71.93
29239;BME280;16267;48.194;11.546;2022-09-09T18:36:27;95787.44;;;18.81;71.97
29239;BME280;16267;48.194;11.546;2022-09-09T18:38:57;95789.13;;;18.79;72.10
29239;BME280;16267;48.194;11.546;2022-09-09T18:41:30;95798.50;;;18.78;72.09
29239;BME280;16267;48.194;11.546;2022-09-09T18:44:02;95807.13;;;18.76;72.34
29239;BME280;16267;48.194;11.546;2022-09-09T18:46:30;95813.00;;;18.75;72.66